sensor_id;sensor_type;location;lat;lon;timestamp;pressure;altitude;pressure_sealevel;temperature;humidity
76352;BME280;65179;47.786;19.138;2023-08-12T00:00:04;100959.50;;;18.32;67.21
76352;BME280;65179;47.786;19.138;2023-08-12T00:02:40;100961.12;;;18.33;67.02
76352;BME280;65179;47.786;19.138;2023-08-12T00:05:07;100957.88;;;18.36;66.90
76352;BME280;65179;47.786;19.138;2023-08-12T00:07:35;100958.72;;;18.36;66.62
76352;BME280;65179;47.786;19.138;2023-08-12T00:10:02;100956.38;;;18.23;66.90
76352;BME280;65179;47.786;19.138;2023-08-12T00:12:32;100958.34;;;18.28;66.91
76352;BME280;65179;47.786;19.138;2023-08-12T00:14:58;100956.28;;;17.96;67.46
76352;BME280;65179;47.786;19.138;2023-08-12T00:17:23;100964.44;;;17.91;67.62
76352;BME280;65179;47.786;19.138;2023-08-12T00:19:49;100963.22;;;17.82;67.98
76352;BME280;65179;47.786;19.138;2023-08-12T00:22:14;100959.47;;;17.88;67.94
76352;BME280;65179;47.786;19.138;2023-08-12T00:24:40;100959.78;;;17.92;67.89
76352;BME280;65179;47.786;19.138;2023-08-12T00:27:06;100961.56;;;17.81;68.18
76352;BME280;65179;47.786;19.138;2023-08-12T00:29:34;100951.16;;;17.83;68.26
76352;BME280;65179;47.786;19.138;2023-08-12T00:32:00;100957.22;;;17.85;68.20
76352;BME280;65179;47.786;19.138;2023-08-12T00:34:26;100964.91;;;17.83;68.25
76352;BME280;65179;47.786;19.138;2023-08-12T00:36:52;100952.31;;;17.87;68.03
76352;BME280;65179;47.786;19.138;2023-08-12T00:39:17;100952.09;;;17.72;68.43
76352;BME280;65179;47.786;19.138;2023-08-12T00:41:43;100948.69;;;17.65;69.25
76352;BME280;65179;47.786;19.138;2023-08-12T00:44:08;100952.84;;;17.84;68.55
76352;BME280;65179;47.786;19.138;2023-08-12T00:46:35;100947.88;;;17.65;69.11
76352;BME280;65179;47.786;19.138;2023-08-12T00:49:00;100948.34;;;17.78;68.97
76352;BME280;65179;47.786;19.138;2023-08-12T00:51:26;100948.38;;;17.62;69.58
76352;BME280;65179;47.786;19.138;2023-08-12T00:53:52;100948.13;;;17.63;69.31
76352;BME280;65179;47.786;19.138;2023-08-12T00:56:18;100961.72;;;17.53;69.86
76352;BME280;65179;47.786;19.138;2023-08-12T00:58:43;100959.22;;;17.52;69.31
76352;BME280;65179;47.786;19.138;2023-08-12T01:01:10;100961.84;;;17.63;68.94
76352;BME280;65179;47.786;19.138;2023-08-12T01:03:36;100955.78;;;17.61;69.25
76352;BME280;65179;47.786;19.138;2023-08-12T01:06:02;100954.72;;;17.62;68.41
76352;BME280;65179;47.786;19.138;2023-08-12T01:08:30;100959.72;;;17.32;69.30
76352;BME280;65179;47.786;19.138;2023-08-12T01:11:07;100954.28;;;17.20;69.50
76352;BME280;65179;47.786;19.138;2023-08-12T01:16:13;100950.19;;;17.39;68.78
76352;BME280;65179;47.786;19.138;2023-08-12T01:18:41;100947.56;;;17.28;68.65
76352;BME280;65179;47.786;19.138;2023-08-12T01:21:09;100956.47;;;17.02;69.58
76352;BME280;65179;47.786;19.138;2023-08-12T01:23:37;100960.09;;;16.91;70.04
76352;BME280;65179;47.786;19.138;2023-08-12T01:26:04;100955.87;;;17.00;69.69
76352;BME280;65179;47.786;19.138;2023-08-12T01:28:29;100956.03;;;17.10;69.56
76352;BME280;65179;47.786;19.138;2023-08-12T01:31:06;100956.69;;;17.00;69.70
76352;BME280;65179;47.786;19.138;2023-08-12T01:33:49;100968.81;;;16.88;70.12
76352;BME280;65179;47.786;19.138;2023-08-12T01:36:19;100966.34;;;16.86;70.36
76352;BME280;65179;47.786;19.138;2023-08-12T01:38:47;100968.66;;;16.94;70.06
76352;BME280;65179;47.786;19.138;2023-08-12T01:41:16;100966.66;;;16.90;70.81
76352;BME280;65179;47.786;19.138;2023-08-12T01:43:42;100965.44;;;16.97;70.08
76352;BME280;65179;47.786;19.138;2023-08-12T01:46:08;100967.81;;;16.94;70.73
76352;BME280;65179;47.786;19.138;2023-08-12T01:48:34;100963.44;;;16.93;70.54
76352;BME280;65179;47.786;19.138;2023-08-12T01:51:00;100956.38;;;16.97;70.17
76352;BME280;65179;47.786;19.138;2023-08-12T01:53:25;100964.69;;;17.02;70.58
76352;BME280;65179;47.786;19.138;2023-08-12T01:55:52;100965.03;;;17.05;70.57
76352;BME280;65179;47.786;19.138;2023-08-12T01:58:17;100966.19;;;16.93;70.47
76352;BME280;65179;47.786;19.138;2023-08-12T02:00:43;100968.66;;;16.78;71.52
76352;BME280;65179;47.786;19.138;2023-08-12T02:03:08;100962.78;;;16.57;72.67
76352;BME280;65179;47.786;19.138;2023-08-12T02:05:33;100960.00;;;16.86;71.68
76352;BME280;65179;47.786;19.138;2023-08-12T02:07:59;100961.69;;;16.87;71.25
76352;BME280;65179;47.786;19.138;2023-08-12T02:10:24;100957.78;;;16.83;71.79
76352;BME280;65179;47.786;19.138;2023-08-12T02:12:50;100951.69;;;16.81;71.62
76352;BME280;65179;47.786;19.138;2023-08-12T02:15:15;100961.00;;;16.80;71.84
76352;BME280;65179;47.786;19.138;2023-08-12T02:17:41;100957.69;;;16.78;71.90
76352;BME280;65179;47.786;19.138;2023-08-12T02:20:06;100953.34;;;16.65;72.18
76352;BME280;65179;47.786;19.138;2023-08-12T02:22:32;100954.34;;;16.76;71.84
76352;BME280;65179;47.786;19.138;2023-08-12T02:24:57;100950.06;;;16.51;72.46
76352;BME280;65179;47.786;19.138;2023-08-12T02:27:23;100949.56;;;16.54;72.54
76352;BME280;65179;47.786;19.138;2023-08-12T02:29:48;100952.16;;;16.61;72.38
76352;BME280;65179;47.786;19.138;2023-08-12T02:32:14;100942.94;;;16.39;73.03
76352;BME280;65179;47.786;19.138;2023-08-12T02:34:39;100944.09;;;16.43;72.81
76352;BME280;65179;47.786;19.138;2023-08-12T02:37:05;100944.25;;;16.36;73.10
76352;BME280;65179;47.786;19.138;2023-08-12T02:39:30;100939.09;;;16.40;72.69
76352;BME280;65179;47.786;19.138;2023-08-12T02:41:55;100942.41;;;16.53;72.47
76352;BME280;65179;47.786;19.138;2023-08-12T02:44:21;100948.59;;;16.60;72.29
76352;BME280;65179;47.786;19.138;2023-08-12T02:46:46;100941.81;;;16.51;72.53
76352;BME280;65179;47.786;19.138;2023-08-12T02:49:12;100946.84;;;16.54;72.65
76352;BME280;65179;47.786;19.138;2023-08-12T02:51:37;100944.56;;;16.51;72.74
76352;BME280;65179;47.786;19.138;2023-08-12T02:54:03;100934.56;;;16.45;73.03
76352;BME280;65179;47.786;19.138;2023-08-12T02:56:28;100941.81;;;16.51;72.37
76352;BME280;65179;47.786;19.138;2023-08-12T02:58:53;100941.41;;;16.31;73.15
76352;BME280;65179;47.786;19.138;2023-08-12T03:01:20;100941.63;;;16.41;72.69
76352;BME280;65179;47.786;19.138;2023-08-12T03:03:46;100942.56;;;16.35;72.73
76352;BME280;65179;47.786;19.138;2023-08-12T03:06:11;100950.19;;;16.33;72.45
76352;BME280;65179;47.786;19.138;2023-08-12T03:08:37;100939.47;;;16.43;71.95
76352;BME280;65179;47.786;19.138;2023-08-12T03:11:02;100942.09;;;16.38;72.46
76352;BME280;65179;47.786;19.138;2023-08-12T03:13:28;100949.25;;;16.39;72.15
76352;BME280;65179;47.786;19.138;2023-08-12T03:15:54;100953.59;;;16.24;72.51
76352;BME280;65179;47.786;19.138;2023-08-12T03:18:20;100958.13;;;16.18;72.73
76352;BME280;65179;47.786;19.138;2023-08-12T03:20:46;100949.81;;;16.13;72.89
76352;BME280;65179;47.786;19.138;2023-08-12T03:23:11;100960.41;;;16.10;72.95
76352;BME280;65179;47.786;19.138;2023-08-12T03:25:37;100952.31;;;16.15;72.56
76352;BME280;65179;47.786;19.138;2023-08-12T03:28:02;100954.47;;;16.13;72.09
76352;BME280;65179;47.786;19.138;2023-08-12T03:30:27;100960.28;;;16.16;72.34
76352;BME280;65179;47.786;19.138;2023-08-12T03:32:53;100961.56;;;16.25;71.97
76352;BME280;65179;47.786;19.138;2023-08-12T03:35:19;100960.06;;;16.06;72.97
76352;BME280;65179;47.786;19.138;2023-08-12T03:37:44;100960.66;;;16.08;72.90
76352;BME280;65179;47.786;19.138;2023-08-12T03:40:10;100964.12;;;15.92;72.99
76352;BME280;65179;47.786;19.138;2023-08-12T03:42:36;100976.78;;;15.93;73.06
76352;BME280;65179;47.786;19.138;2023-08-12T03:45:01;100972.94;;;15.94;73.32
76352;BME280;65179;47.786;19.138;2023-08-12T03:47:27;100977.94;;;15.97;72.95
76352;BME280;65179;47.786;19.138;2023-08-12T03:49:52;100978.81;;;15.86;73.32
76352;BME280;65179;47.786;19.138;2023-08-12T03:52:17;100977.94;;;15.97;73.08
76352;BME280;65179;47.786;19.138;2023-08-12T03:54:43;100977.94;;;15.97;73.39
76352;BME280;65179;47.786;19.138;2023-08-12T03:57:08;100973.78;;;15.94;73.52
76352;BME280;65179;47.786;19.138;2023-08-12T03:59:34;100978.78;;;15.98;73.28
76352;BME280;65179;47.786;19.138;2023-08-12T04:01:59;100984.16;;;15.81;74.19
76352;BME280;65179;47.786;19.138;2023-08-12T04:04:24;100977.75;;;15.87;73.65
76352;BME280;65179;47.786;19.138;2023-08-12T04:06:50;100990.81;;;15.97;73.88
76352;BME280;65179;47.786;19.138;2023-08-12T04:09:18;100992.25;;;15.99;73.44
76352;BME280;65179;47.786;19.138;2023-08-12T04:11:45;100987.22;;;15.96;73.80
76352;BME280;65179;47.786;19.138;2023-08-12T04:14:11;100994.25;;;16.04;73.57
76352;BME280;65179;47.786;19.138;2023-08-12T04:16:37;100994.88;;;15.94;73.73
76352;BME280;65179;47.786;19.138;2023-08-12T04:19:02;100997.72;;;15.99;74.07
76352;BME280;65179;47.786;19.138;2023-08-12T04:21:28;100996.53;;;15.83;75.56
76352;BME280;65179;47.786;19.138;2023-08-12T04:23:53;100996.78;;;15.82;75.91
76352;BME280;65179;47.786;19.138;2023-08-12T04:26:19;100992.72;;;15.96;74.82
76352;BME280;65179;47.786;19.138;2023-08-12T04:28:44;100997.72;;;15.99;74.54
76352;BME280;65179;47.786;19.138;2023-08-12T04:31:10;100999.16;;;15.90;75.58
76352;BME280;65179;47.786;19.138;2023-08-12T04:33:35;100990.81;;;16.08;74.32
76352;BME280;65179;47.786;19.138;2023-08-12T04:36:00;101001.09;;;16.29;73.42
76352;BME280;65179;47.786;19.138;2023-08-12T04:38:26;100999.22;;;16.30;72.99
76352;BME280;65179;47.786;19.138;2023-08-12T04:40:55;101000.25;;;16.40;72.96
76352;BME280;65179;47.786;19.138;2023-08-12T04:43:20;100997.94;;;16.49;73.03
76352;BME280;65179;47.786;19.138;2023-08-12T04:45:46;101006.19;;;16.60;73.22
76352;BME280;65179;47.786;19.138;2023-08-12T04:48:12;101009.09;;;16.71;73.18
76352;BME280;65179;47.786;19.138;2023-08-12T04:50:38;101006.06;;;16.84;72.71
76352;BME280;65179;47.786;19.138;2023-08-12T04:53:04;101011.44;;;16.79;72.96
76352;BME280;65179;47.786;19.138;2023-08-12T04:55:31;101013.31;;;16.90;73.12
76352;BME280;65179;47.786;19.138;2023-08-12T04:57:57;101013.88;;;16.92;72.84
76352;BME280;65179;47.786;19.138;2023-08-12T05:00:23;101017.91;;;17.01;72.95
76352;BME280;65179;47.786;19.138;2023-08-12T05:02:48;101013.69;;;17.10;72.77
76352;BME280;65179;47.786;19.138;2023-08-12T05:05:14;101016.41;;;17.10;72.86
76352;BME280;65179;47.786;19.138;2023-08-12T05:07:40;101015.94;;;17.13;72.75
76352;BME280;65179;47.786;19.138;2023-08-12T05:10:06;101021.50;;;17.18;72.74
76352;BME280;65179;47.786;19.138;2023-08-12T05:12:31;101019.34;;;17.20;73.13
76352;BME280;65179;47.786;19.138;2023-08-12T05:14:57;101014.28;;;17.45;72.54
76352;BME280;65179;47.786;19.138;2023-08-12T05:17:22;101017.81;;;17.57;72.15
76352;BME280;65179;47.786;19.138;2023-08-12T05:19:48;101010.31;;;17.69;72.53
76352;BME280;65179;47.786;19.138;2023-08-12T05:22:13;101011.28;;;17.80;72.83
76352;BME280;65179;47.786;19.138;2023-08-12T05:24:39;101013.13;;;17.74;72.19
76352;BME280;65179;47.786;19.138;2023-08-12T05:27:04;101016.97;;;17.73;72.42
76352;BME280;65179;47.786;19.138;2023-08-12T05:29:30;101016.31;;;17.66;72.66
76352;BME280;65179;47.786;19.138;2023-08-12T05:31:56;101013.63;;;17.71;72.51
76352;BME280;65179;47.786;19.138;2023-08-12T05:34:21;101014.34;;;17.83;72.25
76352;BME280;65179;47.786;19.138;2023-08-12T05:36:47;101020.78;;;18.10;71.66
76352;BME280;65179;47.786;19.138;2023-08-12T05:39:12;101026.75;;;18.24;71.30
76352;BME280;65179;47.786;19.138;2023-08-12T05:41:37;101021.62;;;18.33;70.98
76352;BME280;65179;47.786;19.138;2023-08-12T05:44:03;101018.78;;;18.44;70.52
76352;BME280;65179;47.786;19.138;2023-08-12T05:46:29;101024.66;;;18.31;70.67
76352;BME280;65179;47.786;19.138;2023-08-12T05:48:54;101014.28;;;18.38;70.11
76352;BME280;65179;47.786;19.138;2023-08-12T05:51:20;101010.28;;;18.46;70.24
76352;BME280;65179;47.786;19.138;2023-08-12T05:53:45;101011.50;;;18.55;69.89
76352;BME280;65179;47.786;19.138;2023-08-12T05:56:11;101011.78;;;18.58;69.95
76352;BME280;65179;47.786;19.138;2023-08-12T05:58:36;101014.81;;;18.57;70.53
76352;BME280;65179;47.786;19.138;2023-08-12T06:01:02;101013.75;;;18.84;69.58
76352;BME280;65179;47.786;19.138;2023-08-12T06:03:27;101007.53;;;18.94;68.94
76352;BME280;65179;47.786;19.138;2023-08-12T06:05:53;101007.81;;;18.98;68.75
76352;BME280;65179;47.786;19.138;2023-08-12T06:08:18;101003.31;;;19.13;68.51
76352;BME280;65179;47.786;19.138;2023-08-12T06:10:44;101016.13;;;19.29;68.16
76352;BME280;65179;47.786;19.138;2023-08-12T06:13:09;101016.25;;;19.39;68.05
76352;BME280;65179;47.786;19.138;2023-08-12T06:15:35;101015.72;;;19.42;67.44
76352;BME280;65179;47.786;19.138;2023-08-12T06:18:02;101009.22;;;19.58;67.29
76352;BME280;65179;47.786;19.138;2023-08-12T06:20:27;101012.53;;;19.60;66.88
76352;BME280;65179;47.786;19.138;2023-08-12T06:22:53;101012.47;;;19.50;67.15
76352;BME280;65179;47.786;19.138;2023-08-12T06:25:19;101009.00;;;19.65;66.71
76352;BME280;65179;47.786;19.138;2023-08-12T06:27:46;101007.13;;;19.76;66.44
76352;BME280;65179;47.786;19.138;2023-08-12T06:30:12;101006.66;;;19.89;66.16
76352;BME280;65179;47.786;19.138;2023-08-12T06:32:38;101005.59;;;19.95;66.05
76352;BME280;65179;47.786;19.138;2023-08-12T06:35:04;101009.00;;;20.07;65.79
76352;BME280;65179;47.786;19.138;2023-08-12T06:37:29;101003.19;;;20.08;65.79
76352;BME280;65179;47.786;19.138;2023-08-12T06:39:55;101007.09;;;20.12;65.29
76352;BME280;65179;47.786;19.138;2023-08-12T06:42:21;101002.22;;;20.24;65.24
76352;BME280;65179;47.786;19.138;2023-08-12T06:44:54;100993.69;;;20.36;64.96
76352;BME280;65179;47.786;19.138;2023-08-12T06:47:19;100998.63;;;20.24;64.42
76352;BME280;65179;47.786;19.138;2023-08-12T06:49:45;100997.56;;;20.40;64.44
76352;BME280;65179;47.786;19.138;2023-08-12T06:52:10;100999.28;;;20.46;64.25
76352;BME280;65179;47.786;19.138;2023-08-12T06:54:36;100993.50;;;20.58;63.73
76352;BME280;65179;47.786;19.138;2023-08-12T06:57:01;101002.38;;;20.65;62.97
76352;BME280;65179;47.786;19.138;2023-08-12T06:59:27;101003.25;;;20.80;62.82
76352;BME280;65179;47.786;19.138;2023-08-12T07:01:52;101000.50;;;20.85;62.80
76352;BME280;65179;47.786;19.138;2023-08-12T07:04:17;100995.00;;;21.00;62.54
76352;BME280;65179;47.786;19.138;2023-08-12T07:06:43;100997.25;;;21.08;61.81
76352;BME280;65179;47.786;19.138;2023-08-12T07:09:08;101001.66;;;21.04;61.21
76352;BME280;65179;47.786;19.138;2023-08-12T07:11:33;100999.72;;;21.10;61.42
76352;BME280;65179;47.786;19.138;2023-08-12T07:13:59;100996.97;;;21.15;60.54
76352;BME280;65179;47.786;19.138;2023-08-12T07:16:24;100992.84;;;21.33;60.02
76352;BME280;65179;47.786;19.138;2023-08-12T07:18:50;100994.78;;;21.47;59.62
76352;BME280;65179;47.786;19.138;2023-08-12T07:21:15;100998.38;;;21.43;59.35
76352;BME280;65179;47.786;19.138;2023-08-12T07:23:41;100998.91;;;21.60;59.59
76352;BME280;65179;47.786;19.138;2023-08-12T07:26:06;101000.56;;;21.76;59.21
76352;BME280;65179;47.786;19.138;2023-08-12T07:28:32;100995.28;;;21.79;58.99
76352;BME280;65179;47.786;19.138;2023-08-12T07:30:59;100999.47;;;21.87;58.81
76352;BME280;65179;47.786;19.138;2023-08-12T07:33:25;101007.19;;;21.75;57.96
76352;BME280;65179;47.786;19.138;2023-08-12T07:35:50;101007.22;;;21.85;57.60
76352;BME280;65179;47.786;19.138;2023-08-12T07:38:16;101007.44;;;21.99;57.41
76352;BME280;65179;47.786;19.138;2023-08-12T07:40:41;101003.50;;;22.25;56.23
76352;BME280;65179;47.786;19.138;2023-08-12T07:43:07;101004.25;;;22.40;55.24
76352;BME280;65179;47.786;19.138;2023-08-12T07:45:32;101002.56;;;22.49;55.54
76352;BME280;65179;47.786;19.138;2023-08-12T07:47:58;101005.41;;;22.24;56.23
76352;BME280;65179;47.786;19.138;2023-08-12T07:50:23;100996.44;;;22.52;55.05
76352;BME280;65179;47.786;19.138;2023-08-12T07:52:49;100994.66;;;22.82;54.31
76352;BME280;65179;47.786;19.138;2023-08-12T07:55:14;100993.22;;;22.89;54.55
76352;BME280;65179;47.786;19.138;2023-08-12T07:57:41;100996.22;;;22.98;53.66
76352;BME280;65179;47.786;19.138;2023-08-12T08:00:06;100985.91;;;23.08;52.96
76352;BME280;65179;47.786;19.138;2023-08-12T08:02:33;100992.03;;;23.00;52.59
76352;BME280;65179;47.786;19.138;2023-08-12T08:04:58;100990.94;;;23.40;52.15
76352;BME280;65179;47.786;19.138;2023-08-12T08:07:24;100987.69;;;23.62;51.54
76352;BME280;65179;47.786;19.138;2023-08-12T08:09:51;100986.13;;;23.51;51.71
76352;BME280;65179;47.786;19.138;2023-08-12T08:12:16;100982.59;;;23.45;50.71
76352;BME280;65179;47.786;19.138;2023-08-12T08:14:42;100984.97;;;23.85;50.10
76352;BME280;65179;47.786;19.138;2023-08-12T08:17:07;100983.13;;;24.04;49.81
76352;BME280;65179;47.786;19.138;2023-08-12T08:19:33;100985.53;;;24.11;47.71
76352;BME280;65179;47.786;19.138;2023-08-12T08:21:58;100986.25;;;24.22;49.46
76352;BME280;65179;47.786;19.138;2023-08-12T08:24:24;100990.25;;;24.10;48.44
76352;BME280;65179;47.786;19.138;2023-08-12T08:26:49;100988.97;;;24.27;47.77
76352;BME280;65179;47.786;19.138;2023-08-12T08:29:15;100992.22;;;24.34;48.52
76352;BME280;65179;47.786;19.138;2023-08-12T08:31:40;100984.25;;;24.27;48.08
76352;BME280;65179;47.786;19.138;2023-08-12T08:34:06;100985.84;;;24.52;47.45
76352;BME280;65179;47.786;19.138;2023-08-12T08:36:32;100993.06;;;24.76;47.12
76352;BME280;65179;47.786;19.138;2023-08-12T08:38:57;101000.88;;;24.74;46.88
76352;BME280;65179;47.786;19.138;2023-08-12T08:41:23;100997.09;;;24.42;47.87
76352;BME280;65179;47.786;19.138;2023-08-12T08:43:49;100988.34;;;24.77;47.21
76352;BME280;65179;47.786;19.138;2023-08-12T08:46:18;100992.56;;;24.69;45.81
76352;BME280;65179;47.786;19.138;2023-08-12T08:48:44;100994.47;;;25.11;46.36
76352;BME280;65179;47.786;19.138;2023-08-12T08:51:11;100985.47;;;25.01;46.46
76352;BME280;65179;47.786;19.138;2023-08-12T08:53:41;100996.28;;;25.02;44.70
76352;BME280;65179;47.786;19.138;2023-08-12T08:56:07;100991.00;;;25.19;44.90
76352;BME280;65179;47.786;19.138;2023-08-12T08:58:33;100988.72;;;25.58;45.62
76352;BME280;65179;47.786;19.138;2023-08-12T09:00:59;100985.72;;;25.36;44.94
76352;BME280;65179;47.786;19.138;2023-08-12T09:03:25;100990.34;;;25.09;46.55
76352;BME280;65179;47.786;19.138;2023-08-12T09:05:51;100987.31;;;25.75;45.69
76352;BME280;65179;47.786;19.138;2023-08-12T09:08:18;100988.22;;;25.84;45.12
76352;BME280;65179;47.786;19.138;2023-08-12T09:10:46;100982.94;;;26.28;45.74
76352;BME280;65179;47.786;19.138;2023-08-12T09:13:12;100981.78;;;26.43;43.40
76352;BME280;65179;47.786;19.138;2023-08-12T09:15:38;100982.41;;;26.53;42.53
76352;BME280;65179;47.786;19.138;2023-08-12T09:18:06;100979.91;;;26.65;42.79
76352;BME280;65179;47.786;19.138;2023-08-12T09:20:35;100983.13;;;26.45;42.46
76352;BME280;65179;47.786;19.138;2023-08-12T09:23:01;100982.16;;;26.90;42.72
76352;BME280;65179;47.786;19.138;2023-08-12T09:25:28;100964.50;;;26.81;41.37
76352;BME280;65179;47.786;19.138;2023-08-12T09:27:55;100961.00;;;26.89;40.81
76352;BME280;65179;47.786;19.138;2023-08-12T09:30:21;100960.00;;;27.30;40.93
76352;BME280;65179;47.786;19.138;2023-08-12T09:33:01;100958.56;;;26.96;41.19
76352;BME280;65179;47.786;19.138;2023-08-12T09:35:38;100958.13;;;26.67;41.50
76352;BME280;65179;47.786;19.138;2023-08-12T09:38:05;100953.19;;;26.64;41.68
76352;BME280;65179;47.786;19.138;2023-08-12T09:40:32;100958.34;;;27.51;40.76
76352;BME280;65179;47.786;19.138;2023-08-12T09:42:58;100948.31;;;27.05;40.80
76352;BME280;65179;47.786;19.138;2023-08-12T09:45:25;100953.69;;;27.38;40.31
76352;BME280;65179;47.786;19.138;2023-08-12T09:47:51;100956.69;;;27.05;41.32
76352;BME280;65179;47.786;19.138;2023-08-12T09:50:17;100951.03;;;27.94;40.01
76352;BME280;65179;47.786;19.138;2023-08-12T09:52:43;100948.81;;;28.13;39.44
76352;BME280;65179;47.786;19.138;2023-08-12T09:55:10;100947.75;;;28.40;38.85
76352;BME280;65179;47.786;19.138;2023-08-12T09:57:42;100946.38;;;28.68;38.31
76352;BME280;65179;47.786;19.138;2023-08-12T10:00:09;100945.81;;;28.49;37.22
76352;BME280;65179;47.786;19.138;2023-08-12T10:02:42;100935.56;;;27.57;38.78
76352;BME280;65179;47.786;19.138;2023-08-12T10:05:12;100941.16;;;28.27;38.52
76352;BME280;65179;47.786;19.138;2023-08-12T10:07:39;100934.22;;;28.90;37.30
76352;BME280;65179;47.786;19.138;2023-08-12T10:10:05;100933.06;;;29.25;36.36
76352;BME280;65179;47.786;19.138;2023-08-12T10:12:33;100924.94;;;28.46;35.90
76352;BME280;65179;47.786;19.138;2023-08-12T10:14:59;100934.56;;;28.15;36.36
76352;BME280;65179;47.786;19.138;2023-08-12T10:17:25;100925.13;;;28.50;35.04
76352;BME280;65179;47.786;19.138;2023-08-12T10:19:55;100917.75;;;29.31;34.73
76352;BME280;65179;47.786;19.138;2023-08-12T10:22:22;100921.97;;;29.54;34.63
76352;BME280;65179;47.786;19.138;2023-08-12T10:24:49;100918.16;;;29.59;34.82
76352;BME280;65179;47.786;19.138;2023-08-12T10:27:17;100921.69;;;29.93;34.05
76352;BME280;65179;47.786;19.138;2023-08-12T10:29:43;100913.81;;;29.87;33.68
76352;BME280;65179;47.786;19.138;2023-08-12T10:32:09;100912.66;;;30.17;33.24
76352;BME280;65179;47.786;19.138;2023-08-12T10:34:34;100914.06;;;30.03;32.44
76352;BME280;65179;47.786;19.138;2023-08-12T10:37:01;100910.91;;;30.04;31.33
76352;BME280;65179;47.786;19.138;2023-08-12T10:39:28;100906.94;;;30.14;32.40
76352;BME280;65179;47.786;19.138;2023-08-12T10:41:56;100899.75;;;29.95;32.06
76352;BME280;65179;47.786;19.138;2023-08-12T10:44:27;100909.16;;;30.29;31.43
76352;BME280;65179;47.786;19.138;2023-08-12T10:47:08;100907.16;;;30.38;30.98
76352;BME280;65179;47.786;19.138;2023-08-12T10:49:38;100897.38;;;30.85;30.38
76352;BME280;65179;47.786;19.138;2023-08-12T10:52:04;100890.87;;;30.93;29.59
76352;BME280;65179;47.786;19.138;2023-08-12T10:54:30;100885.69;;;30.83;30.05
76352;BME280;65179;47.786;19.138;2023-08-12T11:02:33;100892.88;;;29.84;30.57
76352;BME280;65179;47.786;19.138;2023-08-12T11:05:08;100887.72;;;30.33;30.92
76352;BME280;65179;47.786;19.138;2023-08-12T11:10:13;100885.09;;;29.98;31.18
76352;BME280;65179;47.786;19.138;2023-08-12T11:12:40;100879.53;;;29.90;31.15
76352;BME280;65179;47.786;19.138;2023-08-12T11:15:06;100877.75;;;30.64;30.63
76352;BME280;65179;47.786;19.138;2023-08-12T11:17:34;100888.88;;;30.32;30.00
76352;BME280;65179;47.786;19.138;2023-08-12T11:20:00;100872.47;;;31.04;30.21
76352;BME280;65179;47.786;19.138;2023-08-12T11:22:26;100873.22;;;31.25;29.75
76352;BME280;65179;47.786;19.138;2023-08-12T11:24:53;100865.50;;;31.55;29.11
76352;BME280;65179;47.786;19.138;2023-08-12T11:27:18;100861.53;;;31.68;28.78
76352;BME280;65179;47.786;19.138;2023-08-12T11:29:43;100858.13;;;31.63;28.34
76352;BME280;65179;47.786;19.138;2023-08-12T11:32:09;100860.72;;;31.68;28.39
76352;BME280;65179;47.786;19.138;2023-08-12T11:34:35;100855.97;;;30.82;29.98
76352;BME280;65179;47.786;19.138;2023-08-12T11:37:03;100844.41;;;31.49;29.32
76352;BME280;65179;47.786;19.138;2023-08-12T11:39:29;100841.19;;;31.14;29.66
76352;BME280;65179;47.786;19.138;2023-08-12T11:41:55;100848.69;;;31.34;29.03
76352;BME280;65179;47.786;19.138;2023-08-12T11:44:22;100850.66;;;30.89;27.10
76352;BME280;65179;47.786;19.138;2023-08-12T11:46:48;100845.12;;;31.13;27.87
76352;BME280;65179;47.786;19.138;2023-08-12T11:49:13;100846.16;;;31.41;27.56
76352;BME280;65179;47.786;19.138;2023-08-12T11:51:39;100834.63;;;31.55;27.51
76352;BME280;65179;47.786;19.138;2023-08-12T11:54:04;100837.41;;;31.10;28.98
76352;BME280;65179;47.786;19.138;2023-08-12T11:56:30;100835.00;;;31.33;28.40
76352;BME280;65179;47.786;19.138;2023-08-12T11:58:56;100838.44;;;31.06;29.16
76352;BME280;65179;47.786;19.138;2023-08-12T12:01:21;100826.09;;;30.04;27.40
76352;BME280;65179;47.786;19.138;2023-08-12T12:03:52;100823.72;;;30.35;28.30
76352;BME280;65179;47.786;19.138;2023-08-12T12:06:17;100822.56;;;31.10;28.50
76352;BME280;65179;47.786;19.138;2023-08-12T12:08:46;100820.97;;;30.26;29.27
76352;BME280;65179;47.786;19.138;2023-08-12T12:11:13;100822.63;;;30.89;28.88
76352;BME280;65179;47.786;19.138;2023-08-12T12:13:39;100821.66;;;30.23;29.60
76352;BME280;65179;47.786;19.138;2023-08-12T12:16:10;100815.75;;;30.99;29.90
76352;BME280;65179;47.786;19.138;2023-08-12T12:18:36;100806.22;;;31.12;28.11
76352;BME280;65179;47.786;19.138;2023-08-12T12:21:01;100805.47;;;30.82;29.53
76352;BME280;65179;47.786;19.138;2023-08-12T12:23:30;100810.47;;;30.97;29.44
76352;BME280;65179;47.786;19.138;2023-08-12T12:25:59;100808.72;;;30.93;28.09
76352;BME280;65179;47.786;19.138;2023-08-12T12:28:25;100806.09;;;31.20;28.38
76352;BME280;65179;47.786;19.138;2023-08-12T12:30:50;100799.78;;;31.23;27.88
76352;BME280;65179;47.786;19.138;2023-08-12T12:33:15;100804.38;;;30.95;28.56
76352;BME280;65179;47.786;19.138;2023-08-12T12:35:41;100794.84;;;31.08;28.77
76352;BME280;65179;47.786;19.138;2023-08-12T12:38:07;100796.13;;;31.11;30.02
76352;BME280;65179;47.786;19.138;2023-08-12T12:40:32;100789.22;;;30.76;30.00
76352;BME280;65179;47.786;19.138;2023-08-12T12:42:58;100784.25;;;30.60;30.04
76352;BME280;65179;47.786;19.138;2023-08-12T12:45:24;100779.37;;;30.90;30.33